createdAt,value
2023-05-13T00:01:21.340Z,85.22
2023-05-13T00:03:49.276Z,85.13
2023-05-13T00:06:17.295Z,85.21
2023-05-13T00:08:45.381Z,85.19
2023-05-13T00:11:13.219Z,85.20
2023-05-13T00:13:40.945Z,85.13
2023-05-13T00:16:08.789Z,85.19
2023-05-13T00:18:36.703Z,85.16
2023-05-13T00:21:04.728Z,85.09
2023-05-13T00:23:33.256Z,84.98
2023-05-13T00:26:01.417Z,85.04
2023-05-13T00:28:29.336Z,85.09
2023-05-13T00:30:57.278Z,85.07
2023-05-13T00:33:25.503Z,85.17
2023-05-13T00:35:53.292Z,85.16
2023-05-13T00:38:21.036Z,85.27
2023-05-13T00:40:49.915Z,85.26
2023-05-13T00:43:18.258Z,85.46
2023-05-13T00:45:46.146Z,85.52
2023-05-13T00:48:13.963Z,85.48
2023-05-13T00:50:44.553Z,85.39
2023-05-13T00:53:13.493Z,85.45
2023-05-13T00:55:43.642Z,85.47
2023-05-13T00:58:11.774Z,85.43
2023-05-13T01:01:02.983Z,85.37
2023-05-13T01:03:50.607Z,85.34
2023-05-13T01:06:29.699Z,85.25
2023-05-13T01:09:31.018Z,85.25
2023-05-13T01:12:08.654Z,85.21
2023-05-13T01:14:52.136Z,85.08
2023-05-13T01:17:31.993Z,85.08
2023-05-13T01:20:03.844Z,85.08
2023-05-13T01:22:32.273Z,85.05
2023-05-13T01:25:00.554Z,85.03
2023-05-13T01:27:28.809Z,85.06
2023-05-13T01:29:57.393Z,85.11
2023-05-13T01:32:29.474Z,85.22
2023-05-13T01:34:58.645Z,85.35
2023-05-13T01:37:27.812Z,85.33
2023-05-13T01:39:55.976Z,85.32
2023-05-13T01:42:25.528Z,85.30
2023-05-13T01:44:54.490Z,85.33
2023-05-13T01:47:22.395Z,85.28
2023-05-13T01:49:50.884Z,85.38
2023-05-13T01:52:18.850Z,85.26
2023-05-13T01:54:46.897Z,85.29
2023-05-13T01:57:15.233Z,85.33
2023-05-13T01:59:43.021Z,85.35
2023-05-13T02:02:10.821Z,85.38
2023-05-13T02:04:38.668Z,85.49
2023-05-13T02:07:06.723Z,85.65
2023-05-13T02:09:35.784Z,85.68
2023-05-13T02:12:07.232Z,85.68
2023-05-13T02:14:35.113Z,85.74
2023-05-13T02:17:03.464Z,85.81
2023-05-13T02:19:31.342Z,85.88
2023-05-13T02:21:59.150Z,85.78
2023-05-13T02:24:26.865Z,85.81
2023-05-13T02:26:55.791Z,85.77
2023-05-13T02:29:23.886Z,85.66
2023-05-13T02:31:51.647Z,85.57
2023-05-13T02:34:19.686Z,85.77
2023-05-13T02:36:48.763Z,85.85
2023-05-13T02:39:16.653Z,85.77
2023-05-13T02:41:44.610Z,85.76
2023-05-13T02:44:12.723Z,85.68
2023-05-13T02:46:40.461Z,85.82
2023-05-13T02:49:08.280Z,85.92
2023-05-13T02:51:35.978Z,85.91
2023-05-13T02:54:06.717Z,85.89
2023-05-13T02:56:34.545Z,85.85
2023-05-13T02:59:02.398Z,85.91
2023-05-13T03:01:30.384Z,85.84
2023-05-13T03:03:58.188Z,85.85
2023-05-13T03:06:25.925Z,85.81
2023-05-13T03:08:53.689Z,86.00
2023-05-13T03:11:21.819Z,86.04
2023-05-13T03:13:49.563Z,86.21
2023-05-13T03:16:17.347Z,86.20
2023-05-13T03:18:45.314Z,86.23
2023-05-13T03:21:13.395Z,86.17
2023-05-13T03:23:41.210Z,86.31
2023-05-13T03:26:09.173Z,86.37
2023-05-13T03:28:36.965Z,86.39
2023-05-13T03:31:05.641Z,86.39
2023-05-13T03:33:35.577Z,86.40
2023-05-13T03:36:04.533Z,86.47
2023-05-13T03:38:32.962Z,86.48
2023-05-13T03:41:00.850Z,86.37
2023-05-13T03:43:29.278Z,86.38
2023-05-13T03:46:00.625Z,86.35
2023-05-13T03:48:29.130Z,86.34
2023-05-13T03:50:57.804Z,86.39
2023-05-13T03:53:26.002Z,86.30
2023-05-13T03:55:57.584Z,86.28
2023-05-13T03:58:25.372Z,86.47
2023-05-13T04:00:53.240Z,86.40
2023-05-13T04:03:21.184Z,86.34
2023-05-13T04:05:51.668Z,86.30
2023-05-13T04:08:19.491Z,86.17
2023-05-13T04:10:47.451Z,86.15
2023-05-13T04:13:15.373Z,86.18
2023-05-13T04:15:44.584Z,86.12
2023-05-13T04:18:12.355Z,86.15
2023-05-13T04:20:41.017Z,86.12
2023-05-13T04:23:08.811Z,86.18
2023-05-13T04:25:39.851Z,86.31
2023-05-13T04:28:07.703Z,86.32
2023-05-13T04:30:44.722Z,86.26
2023-05-13T04:33:13.042Z,86.23
2023-05-13T04:35:43.832Z,86.18
2023-05-13T04:38:12.581Z,86.23
2023-05-13T04:40:40.555Z,86.31
2023-05-13T04:43:12.441Z,86.23
2023-05-13T04:45:47.816Z,86.17
2023-05-13T04:48:16.674Z,86.15
2023-05-13T04:50:48.418Z,86.12
2023-05-13T04:53:17.427Z,86.06
2023-05-13T04:55:49.892Z,85.96
2023-05-13T04:58:17.708Z,85.92
2023-05-13T05:00:45.850Z,85.87
2023-05-13T05:03:14.557Z,85.77
2023-05-13T05:05:42.517Z,85.86
2023-05-13T05:08:11.276Z,85.82
2023-05-13T05:10:39.045Z,85.76
2023-05-13T05:13:10.269Z,85.95
2023-05-13T05:15:38.343Z,85.93
2023-05-13T05:18:08.097Z,86.10
2023-05-13T05:20:38.452Z,85.99
2023-05-13T05:23:10.499Z,86.06
2023-05-13T05:25:39.130Z,86.08
2023-05-13T05:28:09.401Z,86.08
2023-05-13T05:30:40.093Z,85.85
2023-05-13T05:33:13.229Z,85.81
2023-05-13T05:35:41.705Z,85.68
2023-05-13T05:38:12.589Z,85.65
2023-05-13T05:40:46.217Z,85.43
2023-05-13T05:43:14.994Z,85.43
2023-05-13T05:45:43.820Z,85.28
2023-05-13T05:48:14.521Z,85.20
2023-05-13T05:50:43.517Z,85.09
2023-05-13T05:53:13.840Z,85.04
2023-05-13T05:55:42.456Z,84.90
2023-05-13T05:58:16.394Z,84.99
2023-05-13T06:00:44.648Z,84.86
2023-05-13T06:03:12.802Z,84.78
2023-05-13T06:05:40.828Z,84.72
2023-05-13T06:08:08.568Z,84.42
2023-05-13T06:10:36.448Z,84.39
2023-05-13T06:13:04.818Z,84.12
2023-05-13T06:15:32.712Z,84.10
2023-05-13T06:18:01.748Z,84.12
2023-05-13T06:20:29.671Z,84.32
2023-05-13T06:22:57.894Z,84.36
2023-05-13T06:25:26.743Z,84.45
2023-05-13T06:27:55.061Z,84.60
2023-05-13T06:30:23.634Z,84.50
2023-05-13T06:33:00.997Z,84.59
2023-05-13T06:35:31.525Z,84.51
2023-05-13T06:38:00.190Z,84.43
2023-05-13T06:40:28.478Z,84.47
2023-05-13T06:42:56.686Z,84.22
2023-05-13T06:45:30.229Z,84.09
2023-05-13T06:47:58.208Z,83.86
2023-05-13T06:50:26.092Z,83.92
2023-05-13T06:52:55.094Z,83.82
2023-05-13T06:55:22.909Z,83.82
2023-05-13T06:57:51.269Z,83.77
2023-05-13T07:00:19.400Z,83.69
2023-05-13T07:02:47.387Z,83.71
2023-05-13T07:05:15.405Z,83.59
2023-05-13T07:07:43.458Z,83.71
2023-05-13T07:10:11.372Z,83.68
2023-05-13T07:12:39.419Z,83.56
2023-05-13T07:15:08.490Z,83.58
2023-05-13T07:17:36.444Z,83.68
2023-05-13T07:20:04.602Z,83.61
2023-05-13T07:22:32.959Z,83.70
2023-05-13T07:25:01.257Z,83.56
2023-05-13T07:27:29.023Z,83.40
2023-05-13T07:29:56.748Z,83.26
2023-05-13T07:32:24.525Z,83.07
2023-05-13T07:34:52.340Z,83.18
2023-05-13T07:37:20.263Z,82.89
2023-05-13T07:39:47.968Z,82.74
2023-05-13T07:42:15.809Z,82.72
2023-05-13T07:44:44.048Z,82.68
2023-05-13T07:47:13.623Z,82.86
2023-05-13T07:49:41.707Z,82.89
2023-05-13T07:52:09.546Z,82.78
2023-05-13T07:54:37.312Z,82.47
2023-05-13T07:57:05.304Z,82.02
2023-05-13T07:59:33.148Z,82.02
2023-05-13T08:02:00.937Z,82.07
2023-05-13T08:04:28.731Z,81.87
2023-05-13T08:06:56.589Z,81.65
2023-05-13T08:09:24.554Z,81.57
2023-05-13T08:11:52.336Z,81.47
2023-05-13T08:14:20.964Z,81.71
2023-05-13T08:16:49.021Z,81.36
2023-05-13T08:19:17.521Z,81.29
2023-05-13T08:21:45.493Z,81.14
2023-05-13T08:24:13.287Z,81.16
2023-05-13T08:26:41.030Z,81.12
2023-05-13T08:29:12.950Z,81.23
2023-05-13T08:31:42.167Z,81.07
2023-05-13T08:34:10.100Z,81.25
2023-05-13T08:36:37.866Z,81.40
2023-05-13T08:39:05.760Z,81.37
2023-05-13T08:41:34.715Z,81.17
2023-05-13T08:44:06.901Z,81.11
2023-05-13T08:46:39.018Z,81.08
2023-05-13T08:49:08.063Z,81.18
2023-05-13T08:51:35.898Z,81.00
2023-05-13T08:54:03.856Z,80.85
2023-05-13T08:56:31.711Z,80.76
2023-05-13T08:58:59.544Z,80.73
2023-05-13T09:01:28.892Z,80.69
2023-05-13T09:04:06.306Z,80.62
2023-05-13T09:06:34.637Z,80.85
2023-05-13T09:09:03.067Z,80.73
2023-05-13T09:11:31.019Z,80.23
2023-05-13T09:14:01.434Z,80.28
2023-05-13T09:16:30.396Z,80.43
2023-05-13T09:19:05.794Z,80.62
2023-05-13T09:21:36.524Z,80.38
2023-05-13T09:24:11.770Z,80.47
2023-05-13T09:26:42.276Z,80.09
2023-05-13T09:29:30.386Z,79.80
2023-05-13T09:32:01.519Z,79.74
2023-05-13T09:34:34.744Z,79.18
2023-05-13T09:37:06.464Z,79.38
2023-05-13T09:39:41.168Z,79.45
2023-05-13T09:42:17.227Z,78.87
2023-05-13T09:44:46.818Z,78.61
2023-05-13T09:47:16.050Z,78.62
2023-05-13T09:49:53.081Z,77.57
2023-05-13T09:52:22.339Z,77.61
2023-05-13T09:54:50.139Z,77.81
2023-05-13T09:57:17.920Z,77.26
2023-05-13T09:59:45.692Z,77.17
2023-05-13T10:02:17.928Z,77.08
2023-05-13T10:04:46.116Z,76.64
2023-05-13T10:07:14.752Z,76.71
2023-05-13T10:09:46.242Z,76.56
2023-05-13T10:12:15.349Z,76.56
2023-05-13T10:14:44.158Z,76.66
2023-05-13T10:17:13.548Z,76.64
2023-05-13T10:19:42.369Z,76.49
2023-05-13T10:22:11.890Z,75.92
2023-05-13T10:24:41.669Z,76.06
2023-05-13T10:27:12.035Z,75.73
2023-05-13T10:29:40.728Z,75.77
2023-05-13T10:32:09.818Z,75.86
2023-05-13T10:34:39.935Z,75.71
2023-05-13T10:37:42.528Z,75.59
2023-05-13T10:40:38.361Z,74.81
2023-05-13T10:43:18.708Z,75.18
2023-05-13T10:46:07.857Z,75.20
2023-05-13T10:48:51.586Z,75.47
2023-05-13T10:51:24.567Z,75.18
2023-05-13T10:53:57.914Z,75.28
2023-05-13T10:56:28.614Z,75.05
2023-05-13T10:59:06.360Z,74.90
2023-05-13T11:01:43.887Z,74.88
2023-05-13T11:04:15.701Z,74.29
2023-05-13T11:06:46.493Z,74.46
2023-05-13T11:09:20.425Z,74.21
2023-05-13T11:11:53.324Z,73.81
2023-05-13T11:14:26.896Z,73.45
2023-05-13T11:17:20.075Z,73.67
2023-05-13T11:19:51.548Z,73.75
2023-05-13T11:22:24.317Z,74.24
2023-05-13T11:25:10.510Z,74.30
2023-05-13T11:27:42.926Z,74.62
2023-05-13T11:30:23.816Z,74.12
2023-05-13T11:32:58.309Z,74.14
2023-05-13T11:35:32.603Z,74.17
2023-05-13T11:38:03.560Z,74.15
2023-05-13T11:40:34.825Z,73.80
2023-05-13T11:43:05.131Z,73.58
2023-05-13T11:45:33.982Z,72.73
2023-05-13T11:48:22.557Z,72.59
2023-05-13T11:50:52.816Z,72.64
2023-05-13T11:53:22.684Z,72.66
2023-05-13T11:55:51.517Z,72.25
2023-05-13T11:58:21.548Z,71.40
2023-05-13T12:00:49.302Z,71.73
2023-05-13T12:03:17.109Z,72.31
2023-05-13T12:05:45.017Z,72.00
2023-05-13T12:08:13.396Z,72.22
2023-05-13T12:10:45.605Z,71.90
2023-05-13T12:13:13.879Z,72.39
2023-05-13T12:15:42.743Z,72.42
2023-05-13T12:18:10.918Z,71.92
2023-05-13T12:20:38.740Z,71.79
2023-05-13T12:23:06.643Z,72.12
2023-05-13T12:25:46.989Z,71.52
2023-05-13T12:28:26.026Z,72.50
2023-05-13T12:30:58.673Z,72.10
2023-05-13T12:33:30.020Z,72.18
2023-05-13T12:36:36.307Z,71.92
2023-05-13T12:39:09.106Z,72.57
2023-05-13T12:41:42.470Z,72.69
2023-05-13T12:44:14.877Z,72.09
2023-05-13T12:46:54.907Z,71.72
2023-05-13T12:49:23.218Z,71.63
2023-05-13T12:51:55.710Z,71.66
2023-05-13T12:54:23.570Z,71.64
2023-05-13T12:56:52.586Z,71.71
2023-05-13T12:59:20.390Z,71.74
2023-05-13T13:01:49.963Z,71.34
2023-05-13T13:04:19.148Z,71.45
2023-05-13T13:06:47.179Z,70.27
2023-05-13T13:09:14.931Z,70.32
2023-05-13T13:11:42.699Z,70.52
2023-05-13T13:14:10.476Z,71.06
2023-05-13T13:16:38.442Z,70.88
2023-05-13T13:19:06.503Z,71.11
2023-05-13T13:21:34.315Z,71.31
2023-05-13T13:24:02.058Z,71.38
2023-05-13T13:26:29.846Z,71.17
2023-05-13T13:28:57.575Z,71.20
2023-05-13T13:31:25.396Z,70.86
2023-05-13T13:33:54.001Z,70.55
2023-05-13T13:36:21.856Z,70.41
2023-05-13T13:38:49.585Z,70.21
2023-05-13T13:41:17.304Z,70.24
2023-05-13T13:43:45.060Z,70.38
2023-05-13T13:46:12.890Z,71.07
2023-05-13T13:48:40.990Z,70.56
2023-05-13T13:51:08.874Z,70.68
2023-05-13T13:53:36.604Z,70.88
2023-05-13T13:56:04.572Z,70.73
2023-05-13T13:58:32.367Z,70.65
2023-05-13T14:01:00.142Z,70.14
2023-05-13T14:03:28.269Z,70.35
2023-05-13T14:05:56.602Z,69.48
2023-05-13T14:08:24.614Z,69.93
2023-05-13T14:10:52.556Z,70.29
2023-05-13T14:13:20.598Z,70.00
2023-05-13T14:15:48.401Z,70.57
2023-05-13T14:18:16.190Z,69.93
2023-05-13T14:20:44.243Z,70.03
2023-05-13T14:23:12.203Z,69.52
2023-05-13T14:25:40.022Z,69.72
2023-05-13T14:28:07.853Z,69.59
2023-05-13T14:30:35.617Z,70.36
2023-05-13T14:33:03.687Z,69.69
2023-05-13T14:35:31.538Z,69.28
2023-05-13T14:37:59.249Z,69.53
2023-05-13T14:40:26.978Z,69.98
2023-05-13T14:42:54.880Z,69.66
2023-05-13T14:45:22.797Z,70.12
2023-05-13T14:47:53.698Z,69.86
2023-05-13T14:50:22.127Z,69.62
2023-05-13T14:52:50.364Z,69.05
2023-05-13T14:55:18.194Z,69.02
2023-05-13T14:57:46.032Z,69.31
2023-05-13T15:00:14.714Z,69.92
2023-05-13T15:02:42.573Z,70.23
2023-05-13T15:05:11.292Z,69.82
2023-05-13T15:07:39.270Z,70.44
2023-05-13T15:10:08.271Z,70.70
2023-05-13T15:12:36.035Z,70.05
2023-05-13T15:15:04.707Z,70.43
2023-05-13T15:17:32.678Z,71.07
2023-05-13T15:20:00.469Z,71.43
2023-05-13T15:22:28.237Z,71.75
2023-05-13T15:24:55.960Z,72.13
2023-05-13T15:27:23.803Z,72.39
2023-05-13T15:29:51.521Z,72.35
2023-05-13T15:32:19.317Z,72.59
2023-05-13T15:34:47.065Z,72.83
2023-05-13T15:37:14.862Z,72.72
2023-05-13T15:39:42.622Z,72.76
2023-05-13T15:42:10.459Z,72.72
2023-05-13T15:44:38.268Z,72.99
2023-05-13T15:47:06.883Z,72.77
2023-05-13T15:49:34.817Z,72.71
2023-05-13T15:52:06.244Z,72.83
2023-05-13T15:54:34.744Z,72.78
2023-05-13T15:57:02.578Z,72.91
2023-05-13T15:59:30.340Z,73.17
2023-05-13T16:01:58.208Z,72.97
2023-05-13T16:04:26.467Z,72.63
2023-05-13T16:06:54.349Z,72.88
2023-05-13T16:09:22.135Z,72.88
2023-05-13T16:11:50.268Z,72.84
2023-05-13T16:14:19.408Z,72.58
2023-05-13T16:16:47.500Z,72.86
2023-05-13T16:19:15.517Z,73.07
2023-05-13T16:21:43.639Z,72.82
2023-05-13T16:24:11.447Z,72.94
2023-05-13T16:26:39.246Z,72.90
2023-05-13T16:29:07.063Z,73.14
2023-05-13T16:31:34.897Z,72.95
2023-05-13T16:34:03.030Z,73.24
2023-05-13T16:36:31.119Z,73.32
2023-05-13T16:38:59.057Z,73.16
2023-05-13T16:41:26.884Z,73.34
2023-05-13T16:43:54.663Z,73.38
2023-05-13T16:46:22.668Z,73.81
2023-05-13T16:48:50.949Z,74.06
2023-05-13T16:51:18.848Z,74.22
2023-05-13T16:53:46.595Z,74.39
2023-05-13T16:56:14.355Z,74.36
2023-05-13T16:58:42.091Z,74.36
2023-05-13T17:01:09.984Z,74.61
2023-05-13T17:03:37.849Z,74.76
2023-05-13T17:06:07.687Z,74.78
2023-05-13T17:08:35.659Z,75.06
2023-05-13T17:11:03.706Z,75.19
2023-05-13T17:13:31.653Z,75.25
2023-05-13T17:15:59.394Z,75.44
2023-05-13T17:18:27.239Z,75.88
2023-05-13T17:20:55.136Z,76.05
2023-05-13T17:23:22.956Z,76.18
2023-05-13T17:25:51.010Z,76.40
2023-05-13T17:28:18.769Z,76.57
2023-05-13T17:30:46.631Z,76.54
2023-05-13T17:33:14.479Z,76.48
2023-05-13T17:35:42.245Z,76.43
2023-05-13T17:38:10.045Z,76.56
2023-05-13T17:40:37.832Z,76.62
2023-05-13T17:43:05.802Z,76.82
2023-05-13T17:45:35.790Z,76.67
2023-05-13T17:48:04.494Z,76.89
2023-05-13T17:50:32.374Z,76.90
2023-05-13T17:53:00.821Z,77.00
2023-05-13T17:55:28.790Z,77.01
2023-05-13T17:57:57.113Z,77.05
2023-05-13T18:00:25.937Z,77.09
2023-05-13T18:02:54.108Z,77.22
2023-05-13T18:05:23.863Z,77.18
2023-05-13T18:07:52.385Z,77.22
2023-05-13T18:10:21.815Z,77.32
2023-05-13T18:12:51.895Z,77.38
2023-05-13T18:15:22.911Z,77.44
2023-05-13T18:17:51.214Z,77.31
2023-05-13T18:20:19.809Z,77.27
2023-05-13T18:22:47.646Z,77.24
2023-05-13T18:25:15.749Z,77.40
2023-05-13T18:27:43.489Z,77.50
2023-05-13T18:30:12.423Z,77.68
2023-05-13T18:32:40.179Z,77.77
2023-05-13T18:35:08.806Z,77.86
2023-05-13T18:37:37.002Z,77.88
2023-05-13T18:40:06.024Z,77.82
2023-05-13T18:42:33.800Z,77.77
2023-05-13T18:45:01.534Z,77.76
2023-05-13T18:47:29.363Z,77.73
2023-05-13T18:49:57.419Z,77.77
2023-05-13T18:52:26.165Z,77.81
2023-05-13T18:54:53.982Z,77.89
2023-05-13T18:57:23.728Z,77.91
2023-05-13T18:59:51.792Z,77.96
2023-05-13T19:02:19.728Z,78.10
2023-05-13T19:04:47.779Z,78.19
2023-05-13T19:07:15.559Z,78.26
2023-05-13T19:09:43.330Z,78.29
2023-05-13T19:12:11.509Z,78.19
2023-05-13T19:14:39.253Z,78.26
2023-05-13T19:17:07.276Z,78.28
2023-05-13T19:19:35.144Z,78.20
2023-05-13T19:22:03.108Z,78.16
2023-05-13T19:24:30.980Z,78.17
2023-05-13T19:26:58.941Z,78.27
2023-05-13T19:29:26.765Z,78.14
2023-05-13T19:31:54.589Z,78.20
2023-05-13T19:34:22.432Z,78.33
2023-05-13T19:36:50.388Z,78.49
2023-05-13T19:39:18.207Z,78.61
2023-05-13T19:41:47.941Z,78.78
2023-05-13T19:44:15.798Z,78.85
2023-05-13T19:46:43.671Z,78.92
2023-05-13T19:49:11.585Z,79.03
2023-05-13T19:51:39.707Z,79.05
2023-05-13T19:54:09.719Z,79.12
2023-05-13T19:56:38.372Z,79.23
2023-05-13T19:59:06.233Z,79.44
2023-05-13T20:01:34.642Z,79.44
2023-05-13T20:04:02.540Z,79.44
2023-05-13T20:06:30.962Z,79.41
2023-05-13T20:08:59.475Z,79.61
2023-05-13T20:11:28.088Z,79.67
2023-05-13T20:13:56.104Z,79.59
2023-05-13T20:16:23.931Z,79.72
2023-05-13T20:18:51.768Z,79.69
2023-05-13T20:21:19.673Z,79.63
2023-05-13T20:23:47.646Z,79.73
2023-05-13T20:26:15.421Z,79.74
2023-05-13T20:28:45.197Z,79.68
2023-05-13T20:31:12.977Z,79.76
2023-05-13T20:33:40.928Z,79.97
2023-05-13T20:36:08.710Z,80.09
2023-05-13T20:38:36.561Z,80.33
2023-05-13T20:41:04.335Z,80.25
2023-05-13T20:43:37.116Z,80.36
2023-05-13T20:46:07.007Z,80.48
2023-05-13T20:48:35.477Z,80.58
2023-05-13T20:51:06.019Z,80.49
2023-05-13T20:53:37.257Z,80.49
2023-05-13T20:56:09.851Z,80.33
2023-05-13T20:58:37.674Z,80.40
2023-05-13T21:01:05.530Z,80.41
2023-05-13T21:03:33.486Z,80.29
2023-05-13T21:06:01.429Z,80.07
2023-05-13T21:08:29.304Z,79.81
2023-05-13T21:10:57.466Z,79.80
2023-05-13T21:13:26.012Z,79.94
2023-05-13T21:15:53.913Z,80.14
2023-05-13T21:18:22.008Z,80.32
2023-05-13T21:20:50.168Z,80.38
2023-05-13T21:23:19.390Z,80.20
2023-05-13T21:25:48.235Z,80.06
2023-05-13T21:28:18.543Z,80.17
2023-05-13T21:30:46.429Z,79.93
2023-05-13T21:33:14.426Z,79.96
2023-05-13T21:35:42.193Z,80.02
2023-05-13T21:38:12.385Z,80.07
2023-05-13T21:40:40.898Z,80.20
2023-05-13T21:43:08.973Z,80.24
2023-05-13T21:45:37.352Z,80.34
2023-05-13T21:48:06.755Z,80.37
2023-05-13T21:50:35.431Z,80.34
2023-05-13T21:53:04.518Z,80.22
2023-05-13T21:55:35.030Z,79.98
2023-05-13T21:58:03.241Z,79.91
2023-05-13T22:00:31.799Z,80.12
2023-05-13T22:03:01.482Z,80.29
2023-05-13T22:05:29.427Z,80.43
2023-05-13T22:07:57.440Z,80.59
2023-05-13T22:10:26.841Z,80.86
2023-05-13T22:12:55.854Z,81.01
2023-05-13T22:15:23.648Z,81.16
2023-05-13T22:17:52.152Z,81.01
2023-05-13T22:20:20.233Z,81.21
2023-05-13T22:22:48.129Z,81.14
2023-05-13T22:25:15.981Z,81.19
2023-05-13T22:27:43.825Z,81.06
2023-05-13T22:30:11.985Z,81.17
2023-05-13T22:32:40.200Z,81.26
2023-05-13T22:35:09.304Z,81.51
2023-05-13T22:37:37.018Z,81.52
2023-05-13T22:40:06.503Z,81.57
2023-05-13T22:42:34.272Z,81.55
2023-05-13T22:45:02.089Z,81.43
2023-05-13T22:47:29.941Z,81.17
2023-05-13T22:49:57.680Z,81.04
2023-05-13T22:52:25.483Z,81.14
2023-05-13T22:54:53.352Z,81.07
2023-05-13T22:57:22.005Z,81.04
2023-05-13T22:59:49.858Z,81.13
2023-05-13T23:02:17.673Z,81.12
2023-05-13T23:04:45.434Z,81.13
2023-05-13T23:07:13.282Z,81.19
2023-05-13T23:09:41.229Z,81.41
2023-05-13T23:12:09.042Z,81.46
2023-05-13T23:14:36.842Z,81.35
2023-05-13T23:17:04.782Z,81.26
2023-05-13T23:19:33.042Z,81.29
2023-05-13T23:22:01.048Z,81.38
2023-05-13T23:24:28.855Z,81.52
2023-05-13T23:26:56.702Z,81.67
2023-05-13T23:29:27.623Z,81.66
2023-05-13T23:31:56.109Z,81.70
2023-05-13T23:34:24.102Z,81.88
2023-05-13T23:36:51.936Z,82.36
2023-05-13T23:39:20.142Z,82.28
2023-05-13T23:41:48.190Z,82.26
2023-05-13T23:44:16.043Z,82.35
2023-05-13T23:46:43.798Z,82.32
2023-05-13T23:49:11.633Z,82.21
2023-05-13T23:51:39.371Z,82.21
2023-05-13T23:54:08.300Z,82.33
2023-05-13T23:56:36.131Z,82.17
2023-05-13T23:59:03.955Z,82.19
